createdAt,value
2022-12-03T00:00:33.990Z,1.25
2022-12-03T00:03:08.181Z,1.38
2022-12-03T00:05:48.865Z,1.50
2022-12-03T00:08:22.099Z,1.44
2022-12-03T00:10:54.895Z,1.48
2022-12-03T00:13:28.003Z,1.32
2022-12-03T00:16:00.812Z,1.49
2022-12-03T00:18:34.978Z,1.54
2022-12-03T00:21:08.182Z,1.46
2022-12-03T00:23:42.405Z,1.41
2022-12-03T00:26:15.551Z,1.24
2022-12-03T00:28:48.662Z,1.50
2022-12-03T00:31:23.297Z,1.45
2022-12-03T00:33:57.561Z,1.22
2022-12-03T00:36:30.362Z,1.48
2022-12-03T00:39:03.189Z,1.25
2022-12-03T00:41:36.152Z,1.50
2022-12-03T00:44:08.932Z,1.48
2022-12-03T00:46:41.820Z,1.48
2022-12-03T00:49:15.990Z,1.46
2022-12-03T00:51:48.866Z,1.47
2022-12-03T00:54:24.476Z,1.44
2022-12-03T00:56:59.973Z,1.46
2022-12-03T00:59:32.813Z,1.44
2022-12-03T01:02:05.666Z,1.41
2022-12-03T01:04:39.962Z,1.55
2022-12-03T01:07:12.834Z,1.34
2022-12-03T01:09:45.810Z,1.41
2022-12-03T01:12:18.623Z,1.45
2022-12-03T01:14:51.666Z,1.48
2022-12-03T01:17:24.688Z,1.45
2022-12-03T01:19:59.100Z,1.33
2022-12-03T01:22:31.957Z,1.44
2022-12-03T01:25:05.330Z,1.26
2022-12-03T01:27:38.141Z,1.36
2022-12-03T01:30:12.980Z,1.44
2022-12-03T01:32:44.821Z,1.45
2022-12-03T01:35:20.151Z,1.46
2022-12-03T01:37:53.001Z,1.50
2022-12-03T01:40:25.985Z,1.35
2022-12-03T01:42:58.829Z,1.24
2022-12-03T01:45:31.820Z,1.12
2022-12-03T01:48:04.835Z,1.39
2022-12-03T01:50:39.087Z,1.37
2022-12-03T01:53:16.678Z,1.38
2022-12-03T01:55:49.486Z,1.30
2022-12-03T01:58:27.640Z,1.42
2022-12-03T02:01:05.411Z,1.17
2022-12-03T02:03:38.562Z,1.34
2022-12-03T02:06:16.879Z,1.44
2022-12-03T02:08:50.775Z,1.37
2022-12-03T02:11:28.865Z,1.22
2022-12-03T02:14:04.252Z,1.30
2022-12-03T02:16:38.747Z,1.17
2022-12-03T02:19:19.076Z,1.15
2022-12-03T02:22:00.834Z,1.09
2022-12-03T02:24:42.947Z,1.36
2022-12-03T02:27:17.092Z,1.33
2022-12-03T02:29:49.977Z,1.40
2022-12-03T02:32:23.830Z,1.34
2022-12-03T02:34:56.768Z,1.34
2022-12-03T02:37:33.351Z,1.24
2022-12-03T02:40:12.223Z,1.35
2022-12-03T02:42:45.897Z,1.33
2022-12-03T02:45:22.151Z,1.33
2022-12-03T02:47:58.314Z,1.40
2022-12-03T02:50:34.265Z,1.32
2022-12-03T02:53:10.988Z,1.20
2022-12-03T02:55:43.834Z,1.09
2022-12-03T02:58:19.122Z,1.28
2022-12-03T03:00:54.770Z,0.84
2022-12-03T03:03:29.730Z,1.13
2022-12-03T03:06:03.279Z,1.21
2022-12-03T03:08:37.818Z,1.31
2022-12-03T03:11:10.853Z,1.24
2022-12-03T03:13:45.406Z,1.27
2022-12-03T03:16:18.238Z,1.02
2022-12-03T03:18:51.156Z,1.26
2022-12-03T03:21:24.064Z,1.19
2022-12-03T03:23:56.883Z,1.00
2022-12-03T03:26:29.874Z,1.16
2022-12-03T03:29:04.124Z,1.15
2022-12-03T03:31:37.369Z,1.16
2022-12-03T03:34:11.198Z,1.01
2022-12-03T03:36:45.113Z,1.15
2022-12-03T03:39:18.060Z,1.13
2022-12-03T03:41:50.911Z,1.09
2022-12-03T03:44:25.174Z,0.75
2022-12-03T03:46:58.602Z,1.06
2022-12-03T03:49:31.450Z,1.10
2022-12-03T03:52:06.049Z,1.07
2022-12-03T03:54:39.942Z,0.79
2022-12-03T03:57:13.145Z,0.72
2022-12-03T03:59:47.480Z,1.14
2022-12-03T04:02:21.934Z,0.98
2022-12-03T04:04:55.807Z,0.90
2022-12-03T04:07:28.872Z,1.01
2022-12-03T04:10:21.756Z,0.64
2022-12-03T04:12:56.648Z,1.01
2022-12-03T04:15:30.840Z,0.53
2022-12-03T04:18:21.104Z,1.06
2022-12-03T04:21:14.763Z,1.08
2022-12-03T04:23:46.566Z,0.96
2022-12-03T04:26:37.136Z,1.07
2022-12-03T04:29:10.019Z,1.02
2022-12-03T04:32:01.838Z,0.92
2022-12-03T04:34:52.596Z,0.90
2022-12-03T04:37:25.699Z,0.78
2022-12-03T04:39:58.513Z,1.07
2022-12-03T04:42:31.384Z,1.00
2022-12-03T04:45:04.255Z,0.94
2022-12-03T04:47:40.005Z,1.02
2022-12-03T04:50:13.006Z,0.91
2022-12-03T04:52:45.806Z,0.89
2022-12-03T04:55:21.274Z,0.95
2022-12-03T04:57:54.163Z,1.07
2022-12-03T05:00:27.048Z,0.43
2022-12-03T05:03:01.298Z,0.88
2022-12-03T05:05:34.122Z,0.97
2022-12-03T05:08:08.221Z,0.81
2022-12-03T05:10:41.140Z,1.06
2022-12-03T05:13:14.052Z,0.70
2022-12-03T05:15:47.232Z,1.08
2022-12-03T05:18:21.387Z,1.05
2022-12-03T05:20:54.287Z,0.75
2022-12-03T05:23:27.116Z,0.87
2022-12-03T05:25:59.911Z,1.08
2022-12-03T05:28:32.690Z,0.79
2022-12-03T05:31:05.827Z,0.99
2022-12-03T05:33:44.219Z,1.04
2022-12-03T05:36:17.463Z,0.92
2022-12-03T05:38:50.295Z,1.00
2022-12-03T05:41:40.713Z,1.03
2022-12-03T05:44:18.858Z,1.03
2022-12-03T05:46:53.256Z,0.65
2022-12-03T05:49:27.515Z,1.00
2022-12-03T05:52:00.367Z,0.79
2022-12-03T05:54:33.295Z,0.67
2022-12-03T05:57:06.138Z,0.58
2022-12-03T05:59:38.931Z,0.57
2022-12-03T06:02:11.981Z,0.77
2022-12-03T06:04:46.286Z,0.64
2022-12-03T06:07:19.162Z,0.75
2022-12-03T06:09:51.941Z,0.57
2022-12-03T06:12:24.720Z,0.69
2022-12-03T06:14:57.571Z,0.54
2022-12-03T06:17:30.401Z,0.75
2022-12-03T06:20:05.863Z,0.57
2022-12-03T06:22:38.611Z,0.75
2022-12-03T06:25:11.605Z,0.80
2022-12-03T06:27:44.751Z,0.65
2022-12-03T06:30:17.709Z,0.85
2022-12-03T06:32:50.473Z,0.78
2022-12-03T06:35:24.593Z,0.62
2022-12-03T06:37:57.424Z,0.35
2022-12-03T06:40:32.729Z,0.61
2022-12-03T06:43:05.563Z,0.79
2022-12-03T06:45:42.052Z,0.80
2022-12-03T06:48:17.527Z,0.75
2022-12-03T06:50:51.725Z,0.72
2022-12-03T06:53:24.720Z,0.79
2022-12-03T06:55:57.543Z,0.64
2022-12-03T06:58:30.335Z,0.46
2022-12-03T07:01:03.122Z,0.80
2022-12-03T07:03:35.935Z,0.70
2022-12-03T07:06:10.105Z,0.74
2022-12-03T07:08:43.067Z,0.71
2022-12-03T07:11:29.775Z,0.68
2022-12-03T07:14:05.798Z,0.71
2022-12-03T07:16:39.752Z,0.71
2022-12-03T07:19:12.900Z,0.54
2022-12-03T07:21:47.195Z,0.72
2022-12-03T07:24:19.976Z,0.72
2022-12-03T07:26:53.170Z,0.54
2022-12-03T07:29:25.963Z,0.71
2022-12-03T07:31:58.753Z,0.74
2022-12-03T07:34:31.554Z,0.64
2022-12-03T07:37:05.791Z,0.60
2022-12-03T07:39:38.745Z,0.70
2022-12-03T07:42:11.515Z,0.76
2022-12-03T07:44:44.371Z,0.54
2022-12-03T07:47:17.212Z,0.66
2022-12-03T07:49:50.072Z,0.88
2022-12-03T07:52:24.185Z,0.83
2022-12-03T07:54:56.952Z,0.81
2022-12-03T07:57:29.762Z,0.55
2022-12-03T08:00:02.648Z,0.74
2022-12-03T08:02:37.961Z,0.46
2022-12-03T08:05:11.389Z,0.82
2022-12-03T08:07:45.965Z,0.51
2022-12-03T08:10:19.243Z,0.76
2022-12-03T08:12:53.584Z,0.76
2022-12-03T08:15:31.145Z,0.71
2022-12-03T08:18:15.032Z,0.55
2022-12-03T08:20:49.419Z,0.72
2022-12-03T08:23:25.209Z,0.72
2022-12-03T08:26:02.003Z,0.60
2022-12-03T08:28:34.777Z,0.63
2022-12-03T08:31:18.530Z,0.59
2022-12-03T08:33:53.627Z,0.36
2022-12-03T08:36:27.676Z,0.67
2022-12-03T08:39:08.121Z,0.59
2022-12-03T08:41:58.288Z,0.55
2022-12-03T08:44:36.313Z,0.60
2022-12-03T08:47:17.075Z,0.48
2022-12-03T08:49:55.763Z,0.56
2022-12-03T08:52:35.549Z,0.44
2022-12-03T08:55:34.420Z,0.50
2022-12-03T08:58:22.636Z,0.66
2022-12-03T09:00:59.317Z,0.66
2022-12-03T09:03:33.068Z,0.75
2022-12-03T09:06:06.636Z,0.57
2022-12-03T09:08:39.392Z,0.74
2022-12-03T09:11:13.908Z,0.62
2022-12-03T09:13:46.660Z,0.73
2022-12-03T09:16:19.796Z,0.79
2022-12-03T09:18:52.964Z,0.72
2022-12-03T09:21:25.795Z,0.66
2022-12-03T09:23:58.603Z,0.78
2022-12-03T09:26:32.689Z,0.88
2022-12-03T09:29:10.578Z,1.04
2022-12-03T09:31:45.385Z,1.05
2022-12-03T09:34:18.398Z,0.98
2022-12-03T09:36:51.224Z,0.91
2022-12-03T09:39:24.028Z,0.90
2022-12-03T09:41:58.349Z,0.91
2022-12-03T09:44:33.650Z,1.07
2022-12-03T09:47:07.848Z,0.95
2022-12-03T09:49:41.099Z,0.93
2022-12-03T09:52:20.870Z,1.06
2022-12-03T09:54:54.550Z,0.81
2022-12-03T09:57:28.995Z,0.67
2022-12-03T10:00:02.051Z,0.92
2022-12-03T10:02:35.956Z,0.62
2022-12-03T10:05:09.956Z,0.96
2022-12-03T10:07:43.242Z,0.81
2022-12-03T10:10:17.231Z,0.82
2022-12-03T10:12:51.827Z,0.87
2022-12-03T10:15:24.774Z,0.90
2022-12-03T10:17:59.145Z,1.05
2022-12-03T10:20:31.930Z,0.85
2022-12-03T10:23:04.704Z,0.61
2022-12-03T10:25:51.025Z,1.04
2022-12-03T10:28:36.467Z,0.98
2022-12-03T10:31:10.492Z,1.02
2022-12-03T10:33:45.611Z,0.92
2022-12-03T10:36:24.151Z,1.03
2022-12-03T10:39:12.361Z,1.01
2022-12-03T10:41:45.916Z,1.03
2022-12-03T10:44:22.452Z,1.10
2022-12-03T10:47:07.556Z,1.10
2022-12-03T10:49:41.420Z,1.17
2022-12-03T10:52:25.901Z,1.16
2022-12-03T10:54:59.727Z,1.05
2022-12-03T10:57:33.162Z,1.22
2022-12-03T11:00:09.307Z,1.35
2022-12-03T11:02:42.100Z,1.17
2022-12-03T11:05:17.118Z,1.25
2022-12-03T11:07:49.874Z,1.27
2022-12-03T11:10:22.866Z,0.91
2022-12-03T11:13:34.241Z,1.39
2022-12-03T11:16:09.132Z,1.29
2022-12-03T11:19:01.977Z,1.30
2022-12-03T11:21:34.740Z,1.26
2022-12-03T11:24:28.322Z,1.23
2022-12-03T11:27:22.094Z,1.35
2022-12-03T11:30:02.573Z,1.30
2022-12-03T11:33:22.938Z,1.32
2022-12-03T11:36:16.589Z,1.27
2022-12-03T11:38:55.095Z,1.35
2022-12-03T11:41:35.759Z,1.42
2022-12-03T11:44:30.322Z,1.24
2022-12-03T11:47:15.009Z,1.28
2022-12-03T11:49:49.965Z,1.06
2022-12-03T11:52:31.621Z,1.34
2022-12-03T11:55:15.602Z,1.34
2022-12-03T11:57:48.518Z,1.42
2022-12-03T12:00:23.797Z,1.39
2022-12-03T12:02:58.686Z,1.39
2022-12-03T12:05:34.528Z,1.23
2022-12-03T12:08:20.480Z,1.20
2022-12-03T12:10:53.425Z,1.20
2022-12-03T12:13:49.901Z,1.23
2022-12-03T12:16:54.947Z,1.36
2022-12-03T12:19:44.074Z,1.30
2022-12-03T12:22:35.840Z,1.32
2022-12-03T12:25:36.944Z,1.33
2022-12-03T12:28:09.894Z,1.27
2022-12-03T12:30:42.899Z,1.44
2022-12-03T12:33:23.043Z,1.28
2022-12-03T12:35:56.053Z,1.22
2022-12-03T12:38:30.239Z,1.06
2022-12-03T12:41:08.446Z,1.30
2022-12-03T12:43:41.672Z,1.24
2022-12-03T12:46:46.228Z,1.18
2022-12-03T12:49:12.110Z,0.73
2022-12-03T12:51:45.957Z,0.77
2022-12-03T12:54:20.120Z,1.11
2022-12-03T12:56:53.117Z,1.30
2022-12-03T12:59:27.201Z,1.22
2022-12-03T13:02:04.521Z,1.13
2022-12-03T13:04:41.520Z,1.22
2022-12-03T13:07:14.820Z,1.27
2022-12-03T13:09:54.723Z,0.92
2022-12-03T13:12:27.686Z,1.00
2022-12-03T13:15:01.678Z,0.91
2022-12-03T13:17:34.500Z,1.07
2022-12-03T13:20:18.748Z,1.01
2022-12-03T13:22:51.593Z,0.71
2022-12-03T13:25:58.269Z,1.12
2022-12-03T13:28:30.778Z,1.08
2022-12-03T13:31:21.598Z,1.02
2022-12-03T13:33:56.318Z,1.13
2022-12-03T13:36:39.223Z,1.08
2022-12-03T13:39:20.156Z,1.05
2022-12-03T13:42:12.713Z,1.01
2022-12-03T13:44:48.083Z,1.11
2022-12-03T13:47:23.104Z,1.09
2022-12-03T13:49:58.980Z,0.96
2022-12-03T13:52:35.549Z,0.90
2022-12-03T13:55:12.571Z,0.87
2022-12-03T13:57:46.732Z,0.78
2022-12-03T14:00:20.522Z,0.91
2022-12-03T14:02:53.582Z,0.85
2022-12-03T14:05:27.673Z,0.70
2022-12-03T14:08:02.098Z,0.45
2022-12-03T14:10:35.332Z,1.03
2022-12-03T14:13:09.721Z,0.89
2022-12-03T14:15:42.538Z,1.02
2022-12-03T14:18:16.058Z,0.93
2022-12-03T14:20:49.144Z,0.80
2022-12-03T14:23:24.859Z,1.06
2022-12-03T14:25:57.671Z,1.03
2022-12-03T14:28:31.791Z,0.91
2022-12-03T14:31:04.611Z,0.82
2022-12-03T14:33:37.442Z,0.83
2022-12-03T14:36:10.736Z,1.00
2022-12-03T14:38:43.480Z,0.99
2022-12-03T14:41:33.931Z,0.70
2022-12-03T14:44:08.095Z,0.82
2022-12-03T14:46:40.854Z,0.65
2022-12-03T14:49:13.683Z,0.89
2022-12-03T14:51:46.444Z,0.78
2022-12-03T14:54:19.264Z,0.83
2022-12-03T14:56:52.095Z,0.66
2022-12-03T14:59:28.009Z,0.72
2022-12-03T15:02:01.378Z,0.66
2022-12-03T15:04:34.484Z,0.60
2022-12-03T15:07:07.766Z,0.74
2022-12-03T15:09:40.581Z,0.64
2022-12-03T15:12:13.361Z,0.59
2022-12-03T15:14:47.878Z,0.80
2022-12-03T15:17:29.448Z,0.74
2022-12-03T15:20:04.907Z,0.75
2022-12-03T15:22:37.685Z,0.36
2022-12-03T15:25:11.107Z,0.91
2022-12-03T15:27:43.853Z,0.87
2022-12-03T15:30:20.258Z,0.91
2022-12-03T15:32:53.060Z,0.71
2022-12-03T15:35:26.021Z,0.92
2022-12-03T15:37:59.066Z,0.88
2022-12-03T15:40:32.467Z,0.85
2022-12-03T15:43:05.491Z,0.83
2022-12-03T15:45:39.794Z,0.77
2022-12-03T15:48:13.964Z,0.66
2022-12-03T15:50:47.269Z,0.69
2022-12-03T15:53:20.076Z,0.76
2022-12-03T15:55:52.871Z,0.92
2022-12-03T15:58:25.667Z,0.82
2022-12-03T16:00:59.893Z,0.81
2022-12-03T16:03:32.720Z,0.82
2022-12-03T16:06:06.260Z,0.92
2022-12-03T16:08:39.195Z,1.03
2022-12-03T16:11:11.997Z,0.90
2022-12-03T16:13:45.041Z,0.95
2022-12-03T16:16:19.364Z,0.78
2022-12-03T16:18:52.180Z,0.90
2022-12-03T16:21:30.367Z,0.96
2022-12-03T16:24:03.228Z,0.85
2022-12-03T16:26:36.066Z,0.83
2022-12-03T16:29:09.099Z,0.78
2022-12-03T16:31:43.356Z,0.83
2022-12-03T16:34:16.195Z,0.79
2022-12-03T16:36:49.123Z,0.88
2022-12-03T16:39:22.055Z,0.79
2022-12-03T16:41:55.090Z,0.86
2022-12-03T16:44:53.782Z,0.77
2022-12-03T16:47:33.400Z,0.75
2022-12-03T16:50:14.141Z,0.77
2022-12-03T16:52:50.913Z,0.77
2022-12-03T16:55:23.681Z,0.85
2022-12-03T16:57:56.538Z,0.79
2022-12-03T17:00:29.786Z,0.84
2022-12-03T17:03:04.135Z,0.90
2022-12-03T17:05:37.066Z,0.73
2022-12-03T17:08:10.012Z,0.72
2022-12-03T17:10:44.544Z,0.77
2022-12-03T17:13:17.495Z,0.73
2022-12-03T17:15:50.559Z,0.83
2022-12-03T17:18:25.244Z,0.81
2022-12-03T17:20:58.076Z,0.68
2022-12-03T17:23:31.888Z,0.66
2022-12-03T17:26:04.849Z,0.73
2022-12-03T17:28:37.765Z,0.76
2022-12-03T17:31:11.711Z,0.70
2022-12-03T17:33:46.263Z,0.70
2022-12-03T17:36:19.190Z,0.71
2022-12-03T17:38:52.289Z,0.67
2022-12-03T17:41:26.155Z,0.61
2022-12-03T17:43:58.947Z,0.60
2022-12-03T17:46:32.006Z,0.52
2022-12-03T17:49:06.538Z,0.53
2022-12-03T17:51:39.703Z,0.63
2022-12-03T17:54:12.709Z,0.68
2022-12-03T17:56:46.241Z,0.66
2022-12-03T17:59:19.004Z,0.67
2022-12-03T18:01:51.953Z,0.68
2022-12-03T18:04:26.258Z,0.59
2022-12-03T18:07:02.390Z,0.67
2022-12-03T18:09:35.852Z,0.59
2022-12-03T18:12:08.853Z,0.59
2022-12-03T18:14:41.703Z,0.69
2022-12-03T18:17:14.839Z,0.68
2022-12-03T18:19:48.971Z,0.72
2022-12-03T18:22:21.879Z,0.66
2022-12-03T18:24:55.780Z,0.61
2022-12-03T18:27:28.617Z,0.64
2022-12-03T18:30:01.817Z,0.57
2022-12-03T18:32:34.600Z,0.64
2022-12-03T18:35:10.021Z,0.60
2022-12-03T18:37:42.907Z,0.67
2022-12-03T18:40:19.947Z,0.55
2022-12-03T18:42:52.973Z,0.55
2022-12-03T18:45:25.782Z,0.54
2022-12-03T18:47:58.660Z,0.53
2022-12-03T18:50:33.103Z,0.62
2022-12-03T18:53:05.949Z,0.59
2022-12-03T18:55:39.394Z,0.47
2022-12-03T18:58:12.404Z,0.63
2022-12-03T19:00:45.266Z,0.52
2022-12-03T19:03:18.415Z,0.52
2022-12-03T19:05:52.943Z,0.54
2022-12-03T19:08:26.074Z,0.48
2022-12-03T19:11:00.503Z,0.45
2022-12-03T19:13:33.367Z,0.43
2022-12-03T19:16:08.564Z,0.42
2022-12-03T19:18:41.559Z,0.48
2022-12-03T19:21:17.516Z,0.48
2022-12-03T19:24:16.409Z,0.46
2022-12-03T19:26:43.548Z,0.48
2022-12-03T19:29:16.418Z,0.46
2022-12-03T19:31:50.498Z,0.48
2022-12-03T19:34:24.218Z,0.56
2022-12-03T19:36:58.390Z,0.57
2022-12-03T19:39:31.734Z,0.40
2022-12-03T19:42:04.803Z,0.44
2022-12-03T19:44:37.754Z,0.40
2022-12-03T19:47:10.672Z,0.37
2022-12-03T19:49:43.465Z,0.37
2022-12-03T19:52:17.650Z,0.43
2022-12-03T19:54:50.640Z,0.32
2022-12-03T19:57:23.807Z,0.39
2022-12-03T19:59:57.167Z,0.36
2022-12-03T20:02:30.396Z,0.36
2022-12-03T20:05:03.417Z,0.27
2022-12-03T20:07:37.737Z,0.32
2022-12-03T20:10:11.251Z,0.37
2022-12-03T20:12:44.504Z,0.34
2022-12-03T20:15:17.512Z,0.32
2022-12-03T20:17:50.458Z,0.48
2022-12-03T20:20:23.628Z,0.45
2022-12-03T20:22:58.142Z,0.50
2022-12-03T20:25:31.011Z,0.49
2022-12-03T20:28:03.846Z,0.50
2022-12-03T20:30:36.764Z,0.37
2022-12-03T20:33:09.703Z,0.38
2022-12-03T20:35:42.570Z,0.36
2022-12-03T20:38:16.748Z,0.44
2022-12-03T20:40:50.159Z,0.28
2022-12-03T20:43:23.091Z,0.34
2022-12-03T20:46:02.408Z,0.32
2022-12-03T20:48:36.097Z,0.34
2022-12-03T20:51:10.846Z,0.44
2022-12-03T20:53:46.230Z,0.43
2022-12-03T20:56:21.520Z,0.46
2022-12-03T20:58:55.096Z,0.36
2022-12-03T21:01:29.246Z,0.43
2022-12-03T21:04:02.944Z,0.35
2022-12-03T21:06:37.816Z,0.28
2022-12-03T21:09:13.164Z,0.33
2022-12-03T21:11:46.461Z,0.40
2022-12-03T21:14:19.259Z,0.42
2022-12-03T21:17:07.971Z,0.34
2022-12-03T21:19:41.825Z,0.26
2022-12-03T21:22:14.631Z,0.34
2022-12-03T21:24:49.151Z,0.38
2022-12-03T21:27:22.118Z,0.28
2022-12-03T21:29:55.206Z,0.37
2022-12-03T21:32:28.293Z,0.33
2022-12-03T21:35:01.144Z,0.39
2022-12-03T21:37:34.265Z,0.20
2022-12-03T21:40:09.552Z,0.32
2022-12-03T21:42:42.528Z,0.33
2022-12-03T21:45:16.415Z,0.38
2022-12-03T21:47:49.356Z,0.40
2022-12-03T21:50:22.278Z,0.26
2022-12-03T21:52:55.656Z,0.34
2022-12-03T21:55:29.904Z,0.33
2022-12-03T21:58:02.751Z,0.31
2022-12-03T22:00:35.703Z,0.36
2022-12-03T22:03:08.610Z,0.33
2022-12-03T22:05:41.462Z,0.34
2022-12-03T22:08:14.435Z,0.33
2022-12-03T22:10:48.713Z,0.32
2022-12-03T22:13:21.664Z,0.30
2022-12-03T22:15:54.562Z,0.35
2022-12-03T22:18:27.481Z,0.38
2022-12-03T22:21:04.240Z,0.41
2022-12-03T22:23:37.331Z,0.42
2022-12-03T22:26:13.743Z,0.30
2022-12-03T22:28:49.530Z,0.39
2022-12-03T22:31:22.550Z,0.35
2022-12-03T22:33:55.399Z,0.21
2022-12-03T22:36:28.197Z,0.14
2022-12-03T22:39:01.079Z,0.39
2022-12-03T22:41:35.308Z,0.30
2022-12-03T22:44:08.283Z,0.23
2022-12-03T22:46:41.242Z,0.21
2022-12-03T22:49:14.707Z,0.33
2022-12-03T22:51:48.499Z,0.28
2022-12-03T22:54:24.115Z,0.28
2022-12-03T22:56:58.575Z,0.30
2022-12-03T22:59:31.679Z,0.27
2022-12-03T23:02:04.818Z,0.22
2022-12-03T23:04:37.693Z,0.16
2022-12-03T23:07:10.714Z,0.14
2022-12-03T23:09:43.533Z,0.31
2022-12-03T23:12:18.007Z,0.32
2022-12-03T23:14:54.071Z,0.24
2022-12-03T23:17:26.883Z,0.16
2022-12-03T23:19:59.679Z,0.30
2022-12-03T23:22:32.596Z,0.20
2022-12-03T23:25:07.258Z,0.31
2022-12-03T23:27:41.563Z,0.33
2022-12-03T23:30:16.583Z,0.30
2022-12-03T23:32:49.415Z,0.31
2022-12-03T23:35:22.275Z,0.28
2022-12-03T23:37:55.078Z,0.34
2022-12-03T23:40:27.939Z,0.24
2022-12-03T23:43:02.392Z,0.24
2022-12-03T23:45:35.784Z,0.24
2022-12-03T23:48:08.606Z,0.20
2022-12-03T23:50:42.196Z,0.30
2022-12-03T23:53:15.117Z,0.35
2022-12-03T23:55:47.996Z,0.35
2022-12-03T23:58:22.528Z,0.38
